Time;durP1;ratioP1;P1;durP2;ratioP2;P2;SDS_P1;SDS_P2;PMS_P1;PMS_P2;Temp;Humidity;BMP_temperature;BMP_pressure;BME280_temperature;BME280_humidity;BME280_pressure;Samples;Min_cycle;Max_cycle;Signal;HPM_P1;HPM_P2
2022/11/12 00:01:47;;;;;;;19.58;14.30;;;5.90;99.90;;;;;;7368916;19;20622;-47
2022/11/12 00:04:32;;;;;;;17.88;12.88;;;5.90;99.90;;;;;;7361077;19;20034;-45
2022/11/12 00:07:17;;;;;;;15.57;12.23;;;5.80;99.90;;;;;;7376868;19;20492;-44
2022/11/12 00:10:03;;;;;;;19.48;13.77;;;5.80;99.90;;;;;;7376587;19;20494;-45
2022/11/12 00:12:49;;;;;;;17.70;13.75;;;5.80;99.90;;;;;;7376483;19;20469;-38
2022/11/12 00:15:33;;;;;;;21.30;15.52;;;5.80;99.90;;;;;;7378471;19;20031;-38
2022/11/12 00:18:19;;;;;;;20.67;15.32;;;5.90;99.90;;;;;;7379371;19;20071;-38
2022/11/12 00:21:04;;;;;;;20.25;15.95;;;5.90;99.90;;;;;;7379176;19;20019;-39
2022/11/12 00:23:49;;;;;;;23.20;15.52;;;5.90;99.90;;;;;;7376496;19;20406;-47
2022/11/12 00:26:33;;;;;;;20.02;14.07;;;5.90;99.90;;;;;;7376669;19;20027;-45
2022/11/12 00:29:18;;;;;;;15.98;13.77;;;5.80;99.90;;;;;;7358641;19;20776;-44
2022/11/12 00:32:06;;;;;;;16.92;13.80;;;5.80;99.90;;;;;;7376992;19;20573;-45
2022/11/12 00:34:51;;;;;;;17.73;13.73;;;5.70;99.90;;;;;;7373078;19;20049;-39
2022/11/12 00:37:35;;;;;;;17.98;14.60;;;5.60;99.90;;;;;;7375924;19;20023;-39
2022/11/12 00:40:20;;;;;;;24.88;15.23;;;5.60;99.90;;;;;;7377728;19;20036;-39
2022/11/12 00:43:05;;;;;;;20.08;14.68;;;5.60;99.90;;;;;;7374407;19;20019;-38
2022/11/12 00:45:49;;;;;;;15.68;13.77;;;5.50;99.90;;;;;;7374189;19;20474;-39
2022/11/12 00:48:34;;;;;;;18.08;14.85;;;5.50;99.90;;;;;;7375277;19;20022;-38
2022/11/12 00:51:19;;;;;;;20.02;15.50;;;5.60;99.90;;;;;;7371843;19;20018;-39
2022/11/12 00:54:04;;;;;;;22.77;14.82;;;5.60;99.90;;;;;;7375300;19;20033;-38
2022/11/12 00:56:49;;;;;;;19.25;14.90;;;5.60;99.90;;;;;;7375281;19;20026;-46
2022/11/12 00:59:34;;;;;;;23.38;14.95;;;5.50;99.90;;;;;;7372265;19;20457;-39
2022/11/12 01:02:21;;;;;;;16.23;13.00;;;5.50;99.90;;;;;;7370931;19;20015;-37
2022/11/12 01:05:05;;;;;;;15.50;13.45;;;5.50;99.90;;;;;;7374779;19;20019;-38
2022/11/12 01:07:50;;;;;;;20.42;14.43;;;5.40;99.90;;;;;;7372213;19;21176;-38
2022/11/12 01:10:35;;;;;;;17.20;14.20;;;5.30;99.90;;;;;;7372554;19;20064;-43
2022/11/12 01:13:20;;;;;;;16.35;13.65;;;5.30;99.90;;;;;;7372636;19;20029;-44
2022/11/12 01:16:11;;;;;;;16.73;12.75;;;5.20;99.90;;;;;;7372212;19;20022;-45
2022/11/12 01:18:58;;;;;;;17.40;13.38;;;5.20;99.90;;;;;;7372883;19;20022;-38
2022/11/12 01:21:43;;;;;;;18.15;12.80;;;5.10;99.90;;;;;;7373302;19;20019;-37
2022/11/12 01:24:28;;;;;;;18.45;13.30;;;5.10;99.90;;;;;;7372090;19;20405;-37
2022/11/12 01:27:13;;;;;;;16.25;13.45;;;5.00;99.90;;;;;;7371950;19;20025;-44
2022/11/12 01:29:58;;;;;;;16.92;13.63;;;5.00;99.90;;;;;;7374845;19;20022;-47
2022/11/12 01:32:44;;;;;;;17.92;13.07;;;4.90;99.90;;;;;;7369825;19;20021;-46
2022/11/12 01:35:29;;;;;;;18.25;14.23;;;5.00;99.90;;;;;;7375731;19;20018;-38
2022/11/12 01:38:14;;;;;;;24.15;16.38;;;5.00;99.90;;;;;;7372760;19;20025;-37
2022/11/12 01:40:59;;;;;;;19.45;15.27;;;5.10;99.90;;;;;;7363369;19;20018;-37
2022/11/12 01:43:44;;;;;;;22.67;16.50;;;5.00;99.90;;;;;;7364811;19;20021;-37
2022/11/12 01:46:29;;;;;;;22.02;16.52;;;5.00;99.90;;;;;;7363718;19;20380;-44
2022/11/12 01:49:20;;;;;;;23.98;15.93;;;5.00;99.90;;;;;;7364642;19;20782;-44
2022/11/12 01:52:16;;;;;;;23.58;15.82;;;5.00;99.90;;;;;;7363801;19;20019;-43
2022/11/12 01:55:06;;;;;;;18.63;14.68;;;5.00;99.90;;;;;;7366601;19;20376;-44
2022/11/12 01:58:03;;;;;;;18.30;14.07;;;4.90;99.90;;;;;;7363539;19;20347;-44
2022/11/12 02:00:49;;;;;;;19.77;14.77;;;4.90;99.90;;;;;;7369675;19;20014;-43
2022/11/12 02:03:34;;;;;;;17.98;14.38;;;4.80;99.90;;;;;;7358362;19;20043;-44
2022/11/12 02:06:19;;;;;;;17.42;13.23;;;4.80;99.90;;;;;;7366413;19;20023;-44
2022/11/12 02:09:04;;;;;;;22.13;16.33;;;4.70;99.90;;;;;;7357702;19;20522;-47
2022/11/12 02:11:49;;;;;;;19.65;15.50;;;4.70;99.90;;;;;;7361588;19;20022;-43
2022/11/12 02:14:34;;;;;;;21.45;15.10;;;4.70;99.90;;;;;;7361314;19;20018;-45
2022/11/12 02:17:19;;;;;;;20.73;15.10;;;4.70;99.90;;;;;;7361365;19;20022;-46
2022/11/12 02:20:09;;;;;;;18.75;14.02;;;4.70;99.90;;;;;;7360778;19;20581;-43
2022/11/12 02:22:53;;;;;;;18.08;13.27;;;4.60;99.90;;;;;;7364070;19;20025;-44
2022/11/12 02:25:38;;;;;;;18.58;13.65;;;4.60;99.90;;;;;;7360942;19;20033;-48
2022/11/12 02:28:23;;;;;;;17.40;13.52;;;4.50;99.90;;;;;;7347382;19;20025;-43
2022/11/12 02:31:08;;;;;;;19.42;14.07;;;4.50;99.90;;;;;;7353983;19;20086;-45
2022/11/12 02:33:54;;;;;;;19.58;13.55;;;4.50;99.90;;;;;;7356189;19;20494;-45
2022/11/12 02:36:39;;;;;;;19.80;14.40;;;4.50;99.90;;;;;;7361876;19;20010;-43
2022/11/12 02:39:23;;;;;;;19.95;14.77;;;4.50;99.90;;;;;;7361156;19;20486;-48
2022/11/12 02:42:08;;;;;;;19.50;14.63;;;4.50;99.90;;;;;;7356549;19;20018;-46
2022/11/12 02:44:53;;;;;;;17.83;14.30;;;4.50;99.90;;;;;;7364944;19;20014;-46
2022/11/12 02:47:38;;;;;;;20.00;14.40;;;4.40;99.90;;;;;;7357321;19;20030;-45
2022/11/12 02:50:23;;;;;;;19.35;15.65;;;4.40;99.90;;;;;;7358058;19;20903;-45
2022/11/12 02:53:07;;;;;;;17.65;14.93;;;4.40;99.90;;;;;;7357609;19;20030;-44
2022/11/12 02:55:52;;;;;;;18.85;13.45;;;4.40;99.90;;;;;;7360901;19;20018;-47
2022/11/12 02:58:37;;;;;;;17.00;12.82;;;4.40;99.90;;;;;;7360162;19;20022;-46
2022/11/12 03:01:22;;;;;;;15.48;13.52;;;4.30;99.90;;;;;;7360536;19;20371;-48
2022/11/12 03:04:07;;;;;;;16.00;13.13;;;4.30;99.90;;;;;;7357588;19;20023;-50
2022/11/12 03:06:52;;;;;;;16.08;13.65;;;4.20;99.90;;;;;;7356668;19;20899;-45
2022/11/12 03:09:37;;;;;;;14.38;12.82;;;4.20;99.90;;;;;;7360909;19;20022;-46
2022/11/12 03:12:22;;;;;;;14.75;11.73;;;4.20;99.90;;;;;;7357268;19;20026;-40
2022/11/12 03:15:07;;;;;;;17.52;12.05;;;4.20;99.90;;;;;;7358122;19;20025;-40
2022/11/12 03:17:52;;;;;;;16.98;13.32;;;4.20;99.90;;;;;;7364145;19;20390;-47
2022/11/12 03:20:37;;;;;;;17.55;13.30;;;4.10;99.90;;;;;;7358432;19;20023;-45
2022/11/12 03:23:24;;;;;;;17.00;12.07;;;4.10;99.90;;;;;;7358117;19;20398;-47
2022/11/12 03:26:09;;;;;;;16.13;11.80;;;4.10;99.90;;;;;;7365400;19;20022;-40
2022/11/12 03:28:54;;;;;;;16.10;13.15;;;4.10;99.90;;;;;;7357122;19;22105;-46
2022/11/12 03:31:40;;;;;;;18.05;14.38;;;4.10;99.90;;;;;;7359903;19;20027;-46
2022/11/12 03:34:26;;;;;;;18.73;14.85;;;4.20;99.90;;;;;;7356330;19;21515;-39
2022/11/12 03:37:11;;;;;;;20.60;15.68;;;4.20;99.90;;;;;;7357093;19;20078;-40
2022/11/12 03:39:56;;;;;;;22.27;16.13;;;4.20;99.90;;;;;;7358085;19;20018;-40
2022/11/12 03:42:49;;;;;;;20.58;16.17;;;4.20;99.90;;;;;;7355653;19;20025;-40
2022/11/12 03:45:34;;;;;;;20.20;15.52;;;4.20;99.90;;;;;;7351711;19;20632;-46
2022/11/12 03:48:19;;;;;;;17.00;14.00;;;4.20;99.90;;;;;;7355044;19;20047;-46
2022/11/12 03:51:04;;;;;;;18.83;13.80;;;4.20;99.90;;;;;;7359409;19;20050;-39
2022/11/12 03:53:49;;;;;;;15.38;12.93;;;4.10;99.90;;;;;;7359116;19;20022;-39
2022/11/12 03:56:33;;;;;;;18.98;12.98;;;4.00;99.90;;;;;;7356854;19;20049;-40
2022/11/12 03:59:18;;;;;;;17.70;13.95;;;4.00;99.90;;;;;;7359781;19;20019;-40
2022/11/12 04:02:03;;;;;;;19.15;13.65;;;3.90;99.90;;;;;;7354862;19;20026;-39
2022/11/12 04:11:11;;;;;;;16.02;12.43;;;4.00;99.90;;;;;;7363106;19;20026;-38
2022/11/12 04:13:56;;;;;;;19.38;13.82;;;4.00;99.90;;;;;;7364673;19;20078;-39
2022/11/12 04:22:49;;;;;;;19.00;13.93;;;4.00;99.90;;;;;;7367806;19;20019;-38
2022/11/12 04:28:37;;;;;;;16.90;12.95;;;4.00;99.90;;;;;;7366916;19;20561;-39
2022/11/12 04:31:22;;;;;;;16.73;12.95;;;3.90;99.90;;;;;;7365192;19;20014;-47
2022/11/12 04:37:11;;;;;;;16.90;12.90;;;3.90;99.90;;;;;;7366107;19;20021;-44
2022/11/12 04:44:58;;;;;;;14.55;11.77;;;3.80;99.90;;;;;;7364937;19;20371;-44
2022/11/12 04:46:06;;;;;;;13.60;11.48;;;3.80;99.90;;;;;;7363449;19;20230;-39
2022/11/12 04:48:51;;;;;;;16.50;12.88;;;3.70;99.90;;;;;;7365690;19;20515;-40
2022/11/12 04:54:40;;;;;;;16.05;12.20;;;3.80;99.90;;;;;;7364971;19;20018;-44
2022/11/12 04:57:25;;;;;;;18.85;13.07;;;3.80;99.90;;;;;;7370992;19;20400;-45
2022/11/12 05:00:11;;;;;;;29.58;16.00;;;3.80;99.90;;;;;;7372346;19;20549;-46
2022/11/12 05:02:56;;;;;;;33.58;18.35;;;3.90;99.90;;;;;;7368205;19;20026;-44
2022/11/12 05:05:41;;;;;;;33.58;17.00;;;3.90;99.90;;;;;;7371126;19;20047;-46
2022/11/12 05:08:25;;;;;;;27.15;14.23;;;3.90;99.90;;;;;;7370761;19;20018;-45
2022/11/12 05:11:10;;;;;;;29.05;15.50;;;3.90;99.90;;;;;;7370575;19;20020;-48
2022/11/12 05:13:55;;;;;;;25.23;14.93;;;3.90;99.90;;;;;;7372914;19;20097;-46
2022/11/12 05:16:40;;;;;;;20.30;13.82;;;3.90;99.90;;;;;;7366888;19;20472;-45
2022/11/12 05:19:25;;;;;;;26.58;14.30;;;3.80;99.90;;;;;;7371086;19;20739;-39
2022/11/12 05:22:10;;;;;;;26.27;14.95;;;3.80;99.90;;;;;;7371960;19;20030;-39
2022/11/12 05:24:55;;;;;;;27.75;15.13;;;3.80;99.90;;;;;;7372928;19;20010;-39
2022/11/12 05:27:40;;;;;;;26.88;14.68;;;3.80;99.90;;;;;;7369681;19;20025;-39
2022/11/12 05:30:25;;;;;;;23.67;13.75;;;3.80;99.90;;;;;;7369944;19;20027;-40
2022/11/12 05:33:10;;;;;;;21.83;13.30;;;3.70;99.90;;;;;;7373410;19;20477;-39
2022/11/12 05:35:56;;;;;;;19.83;12.70;;;3.70;99.90;;;;;;7366513;19;20094;-39
2022/11/12 05:38:41;;;;;;;18.58;13.45;;;3.60;99.90;;;;;;7371404;19;20036;-39
2022/11/12 05:41:26;;;;;;;22.77;13.35;;;3.60;99.90;;;;;;7371308;19;20015;-39
2022/11/12 05:44:11;;;;;;;20.13;13.68;;;3.60;99.90;;;;;;7370830;19;20426;-39
2022/11/12 05:46:56;;;;;;;23.10;12.43;;;3.60;99.90;;;;;;7368404;19;20493;-39
2022/11/12 05:49:41;;;;;;;31.33;14.07;;;3.60;99.90;;;;;;7366888;19;20026;-39
2022/11/12 05:52:25;;;;;;;28.67;14.80;;;3.60;99.90;;;;;;7368052;19;20023;-40
2022/11/12 05:55:10;;;;;;;31.73;14.30;;;3.70;99.90;;;;;;7370967;19;20015;-39
2022/11/12 06:01:19;;;;;;;31.77;12.80;;;3.70;99.90;;;;;;7369191;19;20479;-39
2022/11/12 06:04:04;;;;;;;23.55;13.95;;;3.70;99.90;;;;;;7366095;19;20042;-40
2022/11/12 06:06:48;;;;;;;28.48;15.07;;;3.70;99.90;;;;;;7369118;19;20018;-40
2022/11/12 06:09:33;;;;;;;25.60;12.70;;;3.70;99.90;;;;;;7370546;19;20025;-39
2022/11/12 06:12:18;;;;;;;23.50;13.23;;;3.70;99.90;;;;;;7369608;19;20014;-39
2022/11/12 06:15:04;;;;;;;33.70;15.43;;;3.70;99.90;;;;;;7368905;19;20431;-39
2022/11/12 06:17:48;;;;;;;57.10;15.60;;;3.70;99.90;;;;;;7369224;19;20026;-39
2022/11/12 06:20:33;;;;;;;46.00;15.63;;;3.80;99.90;;;;;;7369153;19;20700;-40
2022/11/12 06:23:18;;;;;;;33.28;15.52;;;3.90;99.90;;;;;;7370232;19;20023;-40
2022/11/12 06:26:04;;;;;;;29.73;13.35;;;3.90;99.90;;;;;;7363101;19;20604;-39
2022/11/12 06:28:49;;;;;;;30.98;14.43;;;3.90;99.90;;;;;;7364851;19;20041;-40
2022/11/12 06:31:34;;;;;;;54.20;15.23;;;3.90;99.90;;;;;;7366727;19;20019;-40
2022/11/12 06:34:18;;;;;;;29.55;14.43;;;3.80;99.90;;;;;;7364590;19;20110;-40
2022/11/12 06:37:03;;;;;;;34.10;15.02;;;3.80;99.90;;;;;;7364780;19;20070;-45
2022/11/12 06:39:49;;;;;;;25.80;13.77;;;3.70;99.90;;;;;;7363794;19;20050;-47
2022/11/12 06:42:34;;;;;;;32.83;14.52;;;3.70;99.90;;;;;;7366994;19;20486;-47
2022/11/12 06:45:19;;;;;;;18.33;12.52;;;3.70;99.90;;;;;;7364706;19;20516;-45
2022/11/12 06:48:04;;;;;;;16.50;11.65;;;3.60;99.90;;;;;;7368535;19;20014;-46
2022/11/12 06:50:49;;;;;;;15.95;11.57;;;3.60;99.90;;;;;;7365703;19;20039;-47
2022/11/12 06:53:34;;;;;;;14.88;11.30;;;3.50;99.90;;;;;;7370073;19;20503;-40
2022/11/12 06:56:20;;;;;;;15.68;10.60;;;3.50;99.90;;;;;;7372173;19;20018;-38
2022/11/12 06:59:04;;;;;;;25.70;12.35;;;3.50;99.90;;;;;;7368806;19;20459;-47
2022/11/12 07:01:49;;;;;;;22.02;10.05;;;3.40;99.90;;;;;;7370168;19;21338;-40
2022/11/12 07:04:39;;;;;;;26.83;10.45;;;3.40;99.90;;;;;;7372081;19;20466;-40
2022/11/12 07:07:24;;;;;;;19.48;10.57;;;3.40;99.90;;;;;;7369998;19;20026;-41
2022/11/12 07:10:10;;;;;;;17.05;10.60;;;3.30;99.90;;;;;;7369792;19;20022;-39
2022/11/12 07:12:54;;;;;;;16.02;9.68;;;3.30;99.90;;;;;;7369806;19;20043;-44
2022/11/12 07:15:40;;;;;;;16.00;10.50;;;3.30;99.90;;;;;;7369560;19;20418;-40
2022/11/12 07:18:26;;;;;;;14.15;10.02;;;3.40;99.90;;;;;;7371948;19;20605;-48
2022/11/12 07:21:13;;;;;;;13.85;10.60;;;3.40;99.90;;;;;;7370915;19;20380;-40
2022/11/12 07:23:58;;;;;;;18.60;10.93;;;3.40;99.90;;;;;;7369646;19;20030;-40
2022/11/12 07:26:43;;;;;;;15.48;11.25;;;3.50;99.90;;;;;;7368309;19;20022;-41
2022/11/12 07:29:28;;;;;;;15.88;11.27;;;3.50;99.90;;;;;;7370481;19;20015;-40
2022/11/12 07:32:13;;;;;;;16.17;10.63;;;3.50;99.90;;;;;;7369760;19;20030;-48
2022/11/12 07:34:58;;;;;;;15.75;11.50;;;3.60;99.90;;;;;;7368402;19;20093;-48
2022/11/12 07:37:43;;;;;;;17.00;10.98;;;3.60;99.90;;;;;;7366822;19;20026;-48
2022/11/12 07:40:29;;;;;;;18.40;10.82;;;3.70;99.90;;;;;;7368849;19;20089;-40
2022/11/12 07:43:17;;;;;;;12.45;10.68;;;3.70;99.90;;;;;;7369891;19;20458;-40
2022/11/12 07:46:17;;;;;;;12.50;10.15;;;3.80;99.90;;;;;;7369895;19;20534;-40
2022/11/12 07:49:02;;;;;;;17.92;11.20;;;3.80;99.90;;;;;;7368526;19;20019;-40
2022/11/12 07:51:47;;;;;;;13.68;9.30;;;3.90;99.90;;;;;;7366279;19;20037;-41
2022/11/12 07:54:32;;;;;;;14.48;10.43;;;4.00;99.90;;;;;;7363458;19;20391;-46
2022/11/12 07:57:17;;;;;;;15.48;10.63;;;4.00;99.90;;;;;;7369320;19;20027;-46
2022/11/12 08:00:03;;;;;;;13.45;10.18;;;4.10;99.90;;;;;;7370336;19;20022;-46
2022/11/12 08:02:48;;;;;;;14.63;9.25;;;4.10;99.90;;;;;;7369718;19;20019;-47
2022/11/12 08:05:34;;;;;;;17.60;11.82;;;4.20;99.90;;;;;;7365842;19;20018;-44
2022/11/12 08:08:19;;;;;;;12.13;8.77;;;4.20;99.90;;;;;;7354701;19;20022;-44
2022/11/12 08:11:04;;;;;;;11.95;9.48;;;4.20;99.90;;;;;;7365223;19;20094;-44
2022/11/12 08:13:49;;;;;;;10.20;8.20;;;4.30;99.90;;;;;;7366225;19;20034;-47
2022/11/12 08:16:34;;;;;;;10.88;9.00;;;4.40;99.90;;;;;;7360635;19;20363;-45
2022/11/12 08:19:18;;;;;;;15.32;9.88;;;4.50;99.90;;;;;;7363611;19;20461;-45
2022/11/12 08:22:04;;;;;;;14.73;10.40;;;4.70;99.90;;;;;;7366761;19;20054;-47
2022/11/12 08:24:48;;;;;;;14.93;11.30;;;5.20;99.90;;;;;;7367408;19;20022;-45
2022/11/12 08:27:34;;;;;;;14.43;10.43;;;6.20;99.90;;;;;;7369535;19;20023;-40
2022/11/12 08:30:19;;;;;;;15.95;7.65;;;7.10;99.90;;;;;;7374980;19;20426;-41
2022/11/12 08:33:05;;;;;;;8.05;6.50;;;8.00;99.90;;;;;;7373055;19;20014;-41
2022/11/12 08:35:50;;;;;;;10.65;6.78;;;8.60;99.90;;;;;;7375277;19;20488;-39
2022/11/12 08:38:36;;;;;;;6.97;5.93;;;8.80;99.90;;;;;;7372734;19;20499;-40
2022/11/12 08:41:21;;;;;;;8.48;6.35;;;8.80;99.90;;;;;;7378330;19;20052;-39
2022/11/12 08:44:06;;;;;;;6.72;5.85;;;9.00;99.90;;;;;;7373255;19;20026;-41
2022/11/12 08:46:50;;;;;;;7.20;5.85;;;9.30;99.90;;;;;;7368378;19;20592;-41
2022/11/12 08:49:35;;;;;;;8.55;7.03;;;10.10;99.90;;;;;;7364224;19;20027;-41
2022/11/12 08:52:20;;;;;;;6.78;5.88;;;10.70;99.90;;;;;;7374239;19;20034;-41
2022/11/12 08:55:06;;;;;;;8.95;6.13;;;11.40;99.90;;;;;;7370418;19;20522;-40
2022/11/12 08:57:51;;;;;;;7.50;6.00;;;11.80;99.90;;;;;;7370359;19;20088;-41
2022/11/12 09:00:39;;;;;;;7.38;6.25;;;12.00;99.90;;;;;;7368732;19;20025;-42
2022/11/12 09:03:25;;;;;;;7.97;6.35;;;12.80;99.90;;;;;;7372504;19;20046;-41
2022/11/12 09:06:11;;;;;;;7.82;5.90;;;12.40;99.90;;;;;;7369725;19;20025;-40
2022/11/12 09:08:56;;;;;;;8.63;6.32;;;12.20;99.90;;;;;;7365998;19;20039;-41
2022/11/12 09:11:40;;;;;;;8.38;6.32;;;12.80;99.90;;;;;;7370070;19;20026;-40
2022/11/12 09:14:26;;;;;;;7.35;5.47;;;13.00;99.90;;;;;;7367346;19;20014;-41
2022/11/12 09:17:11;;;;;;;6.90;6.15;;;13.30;99.90;;;;;;7373790;19;20504;-43
2022/11/12 09:19:56;;;;;;;7.65;5.60;;;13.70;99.90;;;;;;7372301;19;20497;-41
2022/11/12 09:22:40;;;;;;;6.80;5.15;;;14.20;99.90;;;;;;7372199;19;20388;-42
2022/11/12 09:25:25;;;;;;;7.20;5.72;;;14.60;99.90;;;;;;7373638;19;20022;-42
2022/11/12 09:28:16;;;;;;;8.32;5.80;;;15.30;99.90;;;;;;7373862;19;20365;-41
2022/11/12 09:31:01;;;;;;;8.55;5.70;;;15.70;99.90;;;;;;7372122;19;20097;-42
2022/11/12 09:33:46;;;;;;;8.73;6.72;;;15.60;99.90;;;;;;7374309;19;20015;-41
2022/11/12 09:36:31;;;;;;;8.00;5.75;;;16.20;99.90;;;;;;7373125;19;20616;-42
2022/11/12 09:39:16;;;;;;;7.30;6.47;;;16.20;99.90;;;;;;7367529;19;20444;-44
2022/11/12 09:42:07;;;;;;;7.95;6.57;;;16.80;99.90;;;;;;7369586;19;20074;-43
2022/11/12 09:45:01;;;;;;;7.50;5.97;;;16.70;99.90;;;;;;7370141;19;20038;-44
2022/11/12 09:47:52;;;;;;;6.80;5.63;;;17.20;99.90;;;;;;7373004;19;20019;-42
2022/11/12 09:50:43;;;;;;;8.03;5.87;;;17.10;99.90;;;;;;7371362;19;20118;-42
2022/11/12 09:53:39;;;;;;;8.65;6.47;;;16.90;99.90;;;;;;7374087;19;20888;-42
2022/11/12 09:56:27;;;;;;;8.48;5.90;;;17.00;99.90;;;;;;7373301;19;20027;-42
2022/11/12 09:59:12;;;;;;;7.18;6.38;;;17.20;99.90;;;;;;7371169;19;20378;-42
2022/11/12 10:02:02;;;;;;;6.53;5.82;;;17.20;99.90;;;;;;7371564;19;20019;-40
2022/11/12 10:05:10;;;;;;;9.25;6.03;;;16.90;99.90;;;;;;7369709;19;20022;-40
2022/11/12 10:08:10;;;;;;;9.05;6.13;;;17.20;99.90;;;;;;7361651;19;20450;-42
2022/11/12 10:11:15;;;;;;;6.85;6.15;;;17.50;99.90;;;;;;7358910;19;20029;-40
2022/11/12 10:14:21;;;;;;;7.47;5.68;;;18.10;99.90;;;;;;7369773;19;20494;-40
2022/11/12 10:17:27;;;;;;;7.75;6.18;;;17.70;99.90;;;;;;7372227;19;20050;-41
2022/11/12 10:20:34;;;;;;;6.45;5.65;;;17.90;99.90;;;;;;7373771;19;20022;-42
2022/11/12 10:23:40;;;;;;;7.47;5.93;;;18.30;99.90;;;;;;7372024;19;20010;-41
2022/11/12 10:26:26;;;;;;;7.07;5.80;;;18.20;99.90;;;;;;7372010;19;20370;-41
2022/11/12 10:29:52;;;;;;;11.15;6.45;;;17.90;99.90;;;;;;7365856;19;20014;-48
2022/11/12 10:32:41;;;;;;;7.53;5.88;;;19.00;99.90;;;;;;7366451;19;20047;-49
2022/11/12 10:35:25;;;;;;;9.25;5.82;;;19.60;99.90;;;;;;7368118;19;20901;-50
2022/11/12 10:38:19;;;;;;;8.13;6.15;;;19.60;99.90;;;;;;7367880;19;20026;-45
2022/11/12 10:41:26;;;;;;;7.75;6.20;;;19.50;99.90;;;;;;7371888;19;20015;-40
2022/11/12 10:44:13;;;;;;;9.90;6.40;;;19.20;99.90;;;;;;7350734;19;20007;-41
2022/11/12 10:47:20;;;;;;;7.45;6.32;;;19.60;99.90;;;;;;7366828;19;20034;-41
2022/11/12 10:50:24;;;;;;;7.15;6.20;;;20.00;99.90;;;;;;7363966;19;20081;-50
2022/11/12 10:53:11;;;;;;;7.75;6.13;;;19.90;99.90;;;;;;7368945;19;20023;-50
2022/11/12 10:55:59;;;;;;;7.78;6.13;;;20.00;99.90;;;;;;7371898;19;20022;-50
2022/11/12 10:59:06;;;;;;;7.50;5.82;;;20.10;99.90;;;;;;7368181;19;20485;-50
2022/11/12 11:01:57;;;;;;;6.80;5.88;;;19.90;99.90;;;;;;7367622;19;20042;-48
2022/11/12 11:04:42;;;;;;;7.97;6.28;;;19.90;99.90;;;;;;7364858;19;20109;-49
2022/11/12 11:07:27;;;;;;;8.90;6.80;;;20.00;99.90;;;;;;7372907;19;20030;-42
2022/11/12 11:10:29;;;;;;;9.13;7.53;;;20.00;99.90;;;;;;7368931;19;20430;-42
2022/11/12 11:13:19;;;;;;;7.20;6.22;;;20.10;99.90;;;;;;7365968;19;20085;-41
2022/11/12 11:16:07;;;;;;;8.35;6.43;;;19.80;99.90;;;;;;7372753;19;20468;-45
2022/11/12 11:18:56;;;;;;;8.38;6.20;;;20.10;99.90;;;;;;7373023;19;20018;-42
2022/11/12 11:21:47;;;;;;;8.05;6.05;;;20.50;99.90;;;;;;7368566;19;20018;-45
2022/11/12 11:24:47;;;;;;;7.63;6.47;;;20.30;99.90;;;;;;7364083;19;20014;-49
2022/11/12 11:27:47;;;;;;;9.75;6.00;;;20.70;99.90;;;;;;7368333;19;20014;-46
2022/11/12 11:30:33;;;;;;;8.25;5.65;;;20.60;99.90;;;;;;7368263;19;20019;-49
2022/11/12 11:33:29;;;;;;;8.35;6.38;;;20.50;99.90;;;;;;7367450;19;20287;-48
2022/11/12 11:36:39;;;;;;;8.07;6.28;;;21.30;99.90;;;;;;7367442;19;20242;-50
2022/11/12 11:39:50;;;;;;;7.20;5.85;;;21.30;92.90;;;;;;7367503;19;20401;-46
2022/11/12 11:42:43;;;;;;;7.78;5.80;;;21.70;95.00;;;;;;7370957;19;20022;-48
2022/11/12 11:46:00;;;;;;;7.07;5.75;;;22.00;95.30;;;;;;7367615;19;20044;-47
2022/11/12 11:49:03;;;;;;;7.40;5.93;;;22.50;92.20;;;;;;7356597;19;20014;-48
2022/11/12 11:52:14;;;;;;;8.75;6.18;;;22.60;96.90;;;;;;7366171;19;20343;-48
2022/11/12 11:55:04;;;;;;;7.60;6.40;;;22.40;93.90;;;;;;7364116;19;20491;-46
2022/11/12 11:57:55;;;;;;;7.87;5.70;;;22.20;94.40;;;;;;7355177;19;20651;-50
2022/11/12 12:00:45;;;;;;;9.20;6.22;;;22.40;92.70;;;;;;7368748;19;20023;-48
2022/11/12 12:03:41;;;;;;;8.23;6.10;;;22.50;91.30;;;;;;7375157;19;20022;-50
2022/11/12 12:06:34;;;;;;;7.60;6.15;;;23.20;89.60;;;;;;7375346;19;20018;-48
2022/11/12 12:09:43;;;;;;;7.88;6.07;;;23.10;90.00;;;;;;7373398;19;20042;-46
2022/11/12 12:12:50;;;;;;;8.70;6.38;;;22.90;85.00;;;;;;7371186;19;20474;-49
2022/11/12 12:15:44;;;;;;;7.70;5.60;;;22.60;85.20;;;;;;7368374;19;20026;-49
2022/11/12 12:18:50;;;;;;;7.55;6.10;;;22.40;87.20;;;;;;7370441;19;20021;-47
2022/11/12 12:21:38;;;;;;;7.32;5.72;;;22.00;85.60;;;;;;7372850;19;20102;-50
2022/11/12 12:24:31;;;;;;;8.40;6.97;;;22.10;90.30;;;;;;7373568;19;20411;-49
2022/11/12 12:27:31;;;;;;;7.18;5.90;;;22.20;90.20;;;;;;7373416;19;20019;-50
2022/11/12 12:30:22;;;;;;;7.90;6.10;;;22.20;87.90;;;;;;7370318;19;20022;-48
2022/11/12 12:33:32;;;;;;;9.57;6.10;;;22.40;90.80;;;;;;7372049;19;20538;-51
2022/11/12 12:36:24;;;;;;;7.57;6.13;;;22.50;88.80;;;;;;7377198;19;20018;-49
2022/11/12 12:39:22;;;;;;;8.57;6.43;;;22.30;90.30;;;;;;7371342;19;20014;-47
2022/11/12 12:42:20;;;;;;;7.20;6.32;;;22.80;90.00;;;;;;7375751;19;20014;-47
2022/11/12 12:45:33;;;;;;;7.18;5.75;;;23.00;82.80;;;;;;7368084;19;20022;-48
2022/11/12 12:48:36;;;;;;;8.32;6.13;;;23.20;82.40;;;;;;7371822;19;20082;-50
2022/11/12 12:51:22;;;;;;;8.27;6.07;;;23.10;79.00;;;;;;7369275;19;20025;-49
2022/11/12 12:54:31;;;;;;;8.43;6.22;;;23.00;84.60;;;;;;7372686;19;20014;-49
2022/11/12 12:57:31;;;;;;;6.95;5.63;;;23.10;79.20;;;;;;7369595;19;20082;-48
2022/11/12 13:00:32;;;;;;;7.60;6.15;;;23.10;81.00;;;;;;7373112;19;20018;-50
2022/11/12 13:03:45;;;;;;;8.98;6.75;;;23.00;81.70;;;;;;7373088;19;20043;-49
2022/11/12 13:06:45;;;;;;;8.38;6.00;;;23.20;79.00;;;;;;7372405;19;20022;-50
2022/11/12 13:09:32;;;;;;;7.15;6.10;;;23.00;77.20;;;;;;7364496;19;20482;-51
2022/11/12 13:15:14;;;;;;;8.35;6.00;;;23.60;80.10;;;;;;7370440;19;20033;-50
2022/11/12 13:17:59;;;;;;;6.65;5.72;;;24.00;76.90;;;;;;7364243;19;20573;-51
2022/11/12 13:21:13;;;;;;;7.10;6.25;;;24.00;77.50;;;;;;7368607;19;20025;-53
2022/11/12 13:24:05;;;;;;;8.32;6.70;;;23.80;76.60;;;;;;7364252;19;20018;-51
2022/11/12 13:26:55;;;;;;;7.63;6.57;;;23.60;75.80;;;;;;7369768;19;20020;-52
2022/11/12 13:29:41;;;;;;;7.90;6.50;;;23.20;76.90;;;;;;7370334;19;20098;-50
2022/11/12 13:32:44;;;;;;;7.55;5.90;;;23.40;77.50;;;;;;7369087;19;20026;-48
2022/11/12 13:35:33;;;;;;;9.55;6.80;;;23.20;76.70;;;;;;7368128;19;20034;-51
2022/11/12 13:38:19;;;;;;;9.77;6.55;;;23.30;76.00;;;;;;7370811;19;20093;-49
2022/11/12 13:41:10;;;;;;;8.07;6.80;;;23.60;77.30;;;;;;7370726;19;20074;-51
2022/11/12 13:43:55;;;;;;;10.30;6.37;;;23.20;78.10;;;;;;7372000;19;20509;-51
2022/11/12 13:46:41;;;;;;;9.00;6.90;;;23.20;78.70;;;;;;7366790;19;20035;-49
2022/11/12 13:49:28;;;;;;;9.43;7.15;;;23.00;78.50;;;;;;7373275;19;20517;-51
2022/11/12 13:52:14;;;;;;;7.95;6.55;;;23.00;78.70;;;;;;7372672;19;20020;-51
2022/11/12 13:55:17;;;;;;;9.25;6.75;;;23.00;79.00;;;;;;7368192;19;20029;-51
2022/11/12 13:58:01;;;;;;;7.25;6.25;;;22.90;77.50;;;;;;7370230;19;20025;-50
2022/11/12 14:00:55;;;;;;;8.32;6.25;;;22.90;79.10;;;;;;7370351;19;20027;-54
2022/11/12 14:03:48;;;;;;;10.90;7.50;;;22.50;80.20;;;;;;7362264;19;20035;-52
2022/11/12 14:06:33;;;;;;;10.15;6.63;;;22.50;80.70;;;;;;7367669;19;20470;-51
2022/11/12 14:09:44;;;;;;;8.77;7.07;;;22.60;80.90;;;;;;7369602;19;20954;-52
2022/11/12 14:12:37;;;;;;;8.45;6.10;;;22.40;81.40;;;;;;7369627;19;20627;-53
2022/11/12 14:15:59;;;;;;;8.90;6.95;;;22.40;83.30;;;;;;7366563;19;20027;-51
2022/11/12 14:19:03;;;;;;;8.50;7.18;;;22.60;80.60;;;;;;7369561;19;20546;-52
2022/11/12 14:22:07;;;;;;;11.05;7.82;;;22.60;80.70;;;;;;7364926;19;20413;-42
2022/11/12 14:24:59;;;;;;;9.95;7.38;;;22.20;82.90;;;;;;7366251;19;20022;-43
2022/11/12 14:27:46;;;;;;;8.50;7.28;;;22.20;83.60;;;;;;7370199;19;20026;-41
2022/11/12 14:30:31;;;;;;;9.05;8.00;;;22.10;84.80;;;;;;7362255;19;20043;-42
2022/11/12 14:33:20;;;;;;;9.82;8.57;;;22.30;83.80;;;;;;7363923;19;20019;-43
2022/11/12 14:36:17;;;;;;;9.63;7.60;;;22.20;84.10;;;;;;7362860;19;20022;-42
2022/11/12 14:39:02;;;;;;;9.25;7.60;;;22.20;84.40;;;;;;7362726;19;20098;-41
2022/11/12 14:41:49;;;;;;;8.60;7.63;;;22.00;85.20;;;;;;7363935;19;20400;-42
2022/11/12 14:44:36;;;;;;;9.57;7.78;;;21.80;87.00;;;;;;7368744;19;20034;-44
2022/11/12 14:47:23;;;;;;;11.27;8.13;;;21.90;86.90;;;;;;7365510;19;20022;-43
2022/11/12 14:50:16;;;;;;;8.82;6.95;;;21.70;88.20;;;;;;7370526;19;20561;-43
2022/11/12 14:53:08;;;;;;;11.20;7.70;;;21.50;88.70;;;;;;7366626;19;20477;-42
2022/11/12 14:55:55;;;;;;;9.00;7.65;;;21.00;89.40;;;;;;7371321;19;20439;-42
2022/11/12 14:58:41;;;;;;;10.60;8.20;;;20.60;90.70;;;;;;7365417;19;20354;-51
2022/11/12 15:01:29;;;;;;;9.55;8.05;;;20.20;92.10;;;;;;7368029;19;20011;-52
2022/11/12 15:04:20;;;;;;;11.27;8.45;;;20.00;93.40;;;;;;7364183;19;20022;-53